createdAt,value
2022-09-02T00:01:27.653Z,21.84
2022-09-02T00:04:00.319Z,21.79
2022-09-02T00:06:28.153Z,21.69
2022-09-02T00:08:55.717Z,21.72
2022-09-02T00:11:27.512Z,21.68
2022-09-02T00:13:57.285Z,21.69
2022-09-02T00:16:25.310Z,21.74
2022-09-02T00:18:53.529Z,21.58
2022-09-02T00:21:21.337Z,21.57
2022-09-02T00:23:49.183Z,21.68
2022-09-02T00:26:16.551Z,21.63
2022-09-02T00:28:51.213Z,21.68
2022-09-02T00:31:27.652Z,21.67
2022-09-02T00:33:55.314Z,21.58
2022-09-02T00:36:22.083Z,21.54
2022-09-02T00:38:48.817Z,21.55
2022-09-02T00:41:15.594Z,21.52
2022-09-02T00:44:05.039Z,21.52
2022-09-02T00:46:33.651Z,21.57
2022-09-02T00:49:14.204Z,21.56
2022-09-02T00:52:03.983Z,21.59
2022-09-02T00:54:34.569Z,21.59
2022-09-02T00:57:06.250Z,21.54
2022-09-02T00:59:58.634Z,21.54
2022-09-02T01:02:31.624Z,21.52
2022-09-02T01:05:04.002Z,21.49
2022-09-02T01:07:34.400Z,21.52
2022-09-02T01:10:02.463Z,21.52
2022-09-02T01:12:32.295Z,21.46
2022-09-02T01:14:59.435Z,21.30
2022-09-02T01:17:26.758Z,21.36
2022-09-02T01:20:00.184Z,21.21
2022-09-02T01:22:31.189Z,21.14
2022-09-02T01:25:04.907Z,21.29
2022-09-02T01:27:31.938Z,21.21
2022-09-02T01:30:00.190Z,21.19
2022-09-02T01:32:29.125Z,21.31
2022-09-02T01:34:55.868Z,21.29
2022-09-02T01:37:22.671Z,21.23
2022-09-02T01:39:49.826Z,21.04
2022-09-02T01:42:16.544Z,21.03
2022-09-02T01:44:46.134Z,20.85
2022-09-02T01:47:16.993Z,20.74
2022-09-02T01:49:46.543Z,20.75
2022-09-02T01:52:14.736Z,20.74
2022-09-02T01:54:41.582Z,20.87
2022-09-02T01:57:08.956Z,20.98
2022-09-02T01:59:35.681Z,21.07
2022-09-02T02:02:03.571Z,21.14
2022-09-02T02:04:31.246Z,21.09
2022-09-02T02:06:58.133Z,21.13
2022-09-02T02:09:25.353Z,21.15
2022-09-02T02:11:53.439Z,21.15
2022-09-02T02:14:20.629Z,21.11
2022-09-02T02:16:50.705Z,21.02
2022-09-02T02:19:18.210Z,21.09
2022-09-02T02:21:44.961Z,21.04
2022-09-02T02:24:11.872Z,21.03
2022-09-02T02:26:38.696Z,21.15
2022-09-02T02:29:06.516Z,21.15
2022-09-02T02:31:33.676Z,21.10
2022-09-02T02:34:00.405Z,21.11
2022-09-02T02:36:27.354Z,21.10
2022-09-02T02:38:55.002Z,20.89
2022-09-02T02:41:22.007Z,21.11
2022-09-02T02:43:49.710Z,20.92
2022-09-02T02:46:16.731Z,21.05
2022-09-02T02:48:43.523Z,21.11
2022-09-02T02:51:10.662Z,21.27
2022-09-02T02:53:38.369Z,21.22
2022-09-02T02:56:06.166Z,21.06
2022-09-02T02:58:33.058Z,21.03
2022-09-02T03:01:01.799Z,20.91
2022-09-02T03:03:29.708Z,20.93
2022-09-02T03:05:58.043Z,20.97
2022-09-02T03:08:28.099Z,20.92
2022-09-02T03:10:56.194Z,21.07
2022-09-02T03:13:29.396Z,21.07
2022-09-02T03:16:00.277Z,21.00
2022-09-02T03:18:27.214Z,20.86
2022-09-02T03:20:53.918Z,20.75
2022-09-02T03:23:20.849Z,20.66
2022-09-02T03:25:50.427Z,20.74
2022-09-02T03:28:26.691Z,20.74
2022-09-02T03:30:54.165Z,20.80
2022-09-02T03:33:22.513Z,20.98
2022-09-02T03:35:49.403Z,20.90
2022-09-02T03:38:16.133Z,20.95
2022-09-02T03:40:44.824Z,20.87
2022-09-02T03:43:11.786Z,20.71
2022-09-02T03:45:41.680Z,20.79
2022-09-02T03:48:13.322Z,20.75
2022-09-02T03:50:43.880Z,20.69
2022-09-02T03:53:18.330Z,20.88
2022-09-02T03:55:49.472Z,20.70
2022-09-02T03:58:18.252Z,20.69
2022-09-02T04:00:52.061Z,20.97
2022-09-02T04:03:20.791Z,20.77
2022-09-02T04:05:50.678Z,20.65
2022-09-02T04:08:19.112Z,20.64
2022-09-02T04:10:46.537Z,20.51
2022-09-02T04:13:13.593Z,20.57
2022-09-02T04:15:44.253Z,20.52
2022-09-02T04:18:12.296Z,20.54
2022-09-02T04:20:40.343Z,20.32
2022-09-02T04:23:08.099Z,20.37
2022-09-02T04:25:40.711Z,20.39
2022-09-02T04:28:08.484Z,20.37
2022-09-02T04:30:38.658Z,20.41
2022-09-02T04:33:06.222Z,20.45
2022-09-02T04:35:35.327Z,20.45
2022-09-02T04:38:03.306Z,20.58
2022-09-02T04:40:31.451Z,20.48
2022-09-02T04:42:59.390Z,20.50
2022-09-02T04:45:29.777Z,20.55
2022-09-02T04:47:57.613Z,20.23
2022-09-02T04:50:24.833Z,20.06
2022-09-02T04:53:10.027Z,19.96
2022-09-02T04:55:40.735Z,19.91
2022-09-02T04:58:10.594Z,19.83
2022-09-02T05:00:39.727Z,19.94
2022-09-02T05:03:11.726Z,20.11
2022-09-02T05:05:40.559Z,20.10
2022-09-02T05:08:10.021Z,20.16
2022-09-02T05:10:39.977Z,20.22
2022-09-02T05:13:06.923Z,20.25
2022-09-02T05:15:38.437Z,20.39
2022-09-02T05:18:07.554Z,20.21
2022-09-02T05:20:34.341Z,20.26
2022-09-02T05:23:02.073Z,20.20
2022-09-02T05:25:28.786Z,20.15
2022-09-02T05:27:56.025Z,20.05
2022-09-02T05:30:24.276Z,20.16
2022-09-02T05:32:51.802Z,20.00
2022-09-02T05:35:18.728Z,19.99
2022-09-02T05:37:45.605Z,20.00
2022-09-02T05:40:14.792Z,20.13
2022-09-02T05:42:43.560Z,20.19
2022-09-02T05:45:11.921Z,20.22
2022-09-02T05:47:43.386Z,20.37
2022-09-02T05:50:10.725Z,20.53
2022-09-02T05:52:43.097Z,20.39
2022-09-02T05:55:10.065Z,20.23
2022-09-02T05:57:38.971Z,20.47
2022-09-02T06:00:08.767Z,20.54
2022-09-02T06:02:43.807Z,20.35
2022-09-02T06:05:20.441Z,20.44
2022-09-02T06:07:54.359Z,20.43
2022-09-02T06:10:22.975Z,20.45
2022-09-02T06:12:50.347Z,20.56
2022-09-02T06:15:20.441Z,20.42
2022-09-02T06:17:48.286Z,20.55
2022-09-02T06:20:16.039Z,20.75
2022-09-02T06:22:44.247Z,20.54
2022-09-02T06:25:11.896Z,20.61
2022-09-02T06:27:40.548Z,20.83
2022-09-02T06:30:09.189Z,21.02
2022-09-02T06:32:35.876Z,21.11
2022-09-02T06:35:08.151Z,21.08
2022-09-02T06:37:35.646Z,21.12
2022-09-02T06:40:04.829Z,21.29
2022-09-02T06:42:32.555Z,21.38
2022-09-02T06:45:25.913Z,21.27
2022-09-02T06:47:55.315Z,21.21
2022-09-02T06:50:22.380Z,21.23
2022-09-02T06:52:49.900Z,21.48
2022-09-02T06:55:18.097Z,21.42
2022-09-02T06:57:44.844Z,21.52
2022-09-02T07:00:13.794Z,21.61
2022-09-02T07:02:42.877Z,21.68
2022-09-02T07:05:10.434Z,21.60
2022-09-02T07:07:39.798Z,21.69
2022-09-02T07:10:13.411Z,21.90
2022-09-02T07:12:44.611Z,21.89
2022-09-02T07:15:14.703Z,22.08
2022-09-02T07:17:42.980Z,21.95
2022-09-02T07:20:15.433Z,22.08
2022-09-02T07:22:47.203Z,22.27
2022-09-02T07:25:17.144Z,22.39
2022-09-02T07:27:44.580Z,22.28
2022-09-02T07:30:12.921Z,22.53
2022-09-02T07:32:42.798Z,22.40
2022-09-02T07:35:10.866Z,22.24
2022-09-02T07:37:42.007Z,22.33
2022-09-02T07:40:11.526Z,22.17
2022-09-02T07:42:39.213Z,22.35
2022-09-02T07:45:07.184Z,22.54
2022-09-02T07:47:35.661Z,22.74
2022-09-02T07:50:22.174Z,22.88
2022-09-02T07:52:58.538Z,22.98
2022-09-02T07:55:31.152Z,22.83
2022-09-02T07:57:59.585Z,22.70
2022-09-02T08:00:27.767Z,22.86
2022-09-02T08:02:58.554Z,23.00
2022-09-02T08:05:32.493Z,23.18
2022-09-02T08:08:00.456Z,23.20
2022-09-02T08:10:29.704Z,23.25
2022-09-02T08:12:58.178Z,23.31
2022-09-02T08:15:28.613Z,23.20
2022-09-02T08:17:57.295Z,23.03
2022-09-02T08:20:24.082Z,23.10
2022-09-02T08:23:00.822Z,23.32
2022-09-02T08:25:37.693Z,23.42
2022-09-02T08:28:05.030Z,23.30
2022-09-02T08:30:31.992Z,23.30
2022-09-02T08:32:58.697Z,23.57
2022-09-02T08:35:26.006Z,23.56
2022-09-02T08:37:53.093Z,23.73
2022-09-02T08:40:27.948Z,23.84
2022-09-02T08:42:56.532Z,23.99
2022-09-02T08:45:39.058Z,24.16
2022-09-02T08:48:21.303Z,24.20
2022-09-02T08:50:52.735Z,24.12
2022-09-02T08:53:36.153Z,24.02
2022-09-02T08:56:06.390Z,24.19
2022-09-02T08:58:47.120Z,24.32
2022-09-02T09:01:18.312Z,24.13
2022-09-02T09:04:11.451Z,24.19
2022-09-02T09:07:08.482Z,24.14
2022-09-02T09:09:49.479Z,23.93
2022-09-02T09:12:31.411Z,24.08
2022-09-02T09:15:11.613Z,24.08
2022-09-02T09:17:51.626Z,24.17
2022-09-02T09:20:20.554Z,24.28
2022-09-02T09:22:49.650Z,24.36
2022-09-02T09:25:20.370Z,24.30
2022-09-02T09:27:47.125Z,24.18
2022-09-02T09:30:15.496Z,24.28
2022-09-02T09:32:49.407Z,24.21
2022-09-02T09:35:18.006Z,24.04
2022-09-02T09:37:50.077Z,24.16
2022-09-02T09:40:23.291Z,24.39
2022-09-02T09:42:55.240Z,24.26
2022-09-02T09:45:32.936Z,24.27
2022-09-02T09:48:38.274Z,24.23
2022-09-02T09:51:04.829Z,24.35
2022-09-02T09:53:34.091Z,24.27
2022-09-02T09:56:23.454Z,24.46
2022-09-02T09:58:51.243Z,24.60
2022-09-02T10:01:24.226Z,24.49
2022-09-02T10:04:32.405Z,24.55
2022-09-02T10:06:55.198Z,24.52
2022-09-02T10:09:31.712Z,24.42
2022-09-02T10:12:07.507Z,24.49
2022-09-02T10:14:44.441Z,24.72
2022-09-02T10:17:40.411Z,24.52
2022-09-02T10:20:13.051Z,24.49
2022-09-02T10:23:02.589Z,24.49
2022-09-02T10:25:42.563Z,24.55
2022-09-02T10:28:27.644Z,24.59
2022-09-02T10:31:07.866Z,24.79
2022-09-02T10:33:57.310Z,24.90
2022-09-02T10:36:41.938Z,24.83
2022-09-02T10:39:27.295Z,24.80
2022-09-02T10:42:03.513Z,24.55
2022-09-02T10:44:33.972Z,24.81
2022-09-02T10:47:20.908Z,24.82
2022-09-02T10:50:07.788Z,24.55
2022-09-02T10:52:53.659Z,24.76
2022-09-02T10:56:00.364Z,24.57
2022-09-02T10:58:38.135Z,24.70
2022-09-02T11:01:07.299Z,24.75
2022-09-02T11:03:41.796Z,24.84
2022-09-02T11:06:18.807Z,24.91
2022-09-02T11:09:02.699Z,25.01
2022-09-02T11:11:46.867Z,25.01
2022-09-02T11:14:22.550Z,24.77
2022-09-02T11:17:14.898Z,24.92
2022-09-02T11:19:55.624Z,24.99
2022-09-02T11:22:39.337Z,25.03
2022-09-02T11:25:15.481Z,24.76
2022-09-02T11:27:48.971Z,24.85
2022-09-02T11:30:21.562Z,24.92
2022-09-02T11:32:55.558Z,24.96
2022-09-02T11:35:28.890Z,24.78
2022-09-02T11:38:07.569Z,24.82
2022-09-02T11:40:43.113Z,24.76
2022-09-02T11:43:49.430Z,24.81
2022-09-02T11:46:54.993Z,24.74
2022-09-02T11:49:37.146Z,24.68
2022-09-02T11:52:03.699Z,24.69
2022-09-02T11:55:02.766Z,24.82
2022-09-02T11:57:32.883Z,24.83
2022-09-02T11:59:59.429Z,24.91
2022-09-02T12:02:41.098Z,24.76
2022-09-02T12:05:32.499Z,24.78
2022-09-02T12:08:28.631Z,24.91
2022-09-02T12:10:59.999Z,24.76
2022-09-02T12:13:43.423Z,24.67
2022-09-02T12:16:15.433Z,24.50
2022-09-02T12:19:07.279Z,24.52
2022-09-02T12:21:39.280Z,24.54
2022-09-02T12:24:10.398Z,24.58
2022-09-02T12:26:37.528Z,24.72
2022-09-02T12:29:31.317Z,24.64
2022-09-02T12:31:58.903Z,24.61
2022-09-02T12:34:25.517Z,24.68
2022-09-02T12:36:57.138Z,24.64
2022-09-02T12:39:30.484Z,24.67
2022-09-02T12:42:07.774Z,24.57
2022-09-02T12:44:56.305Z,24.61
2022-09-02T12:47:41.471Z,24.52
2022-09-02T12:50:20.838Z,24.60
2022-09-02T12:52:49.511Z,24.61
2022-09-02T12:55:28.638Z,24.64
2022-09-02T12:58:16.828Z,24.72
2022-09-02T13:00:46.385Z,24.90
2022-09-02T13:03:35.481Z,24.89
2022-09-02T13:06:08.147Z,24.86
2022-09-02T13:09:01.390Z,24.75
2022-09-02T13:11:46.585Z,24.89
2022-09-02T13:14:28.132Z,24.84
2022-09-02T13:20:39.126Z,25.05
2022-09-02T13:23:14.982Z,25.19
2022-09-02T13:26:08.791Z,25.05
2022-09-02T13:29:13.224Z,25.34
2022-09-02T13:31:40.276Z,25.38
2022-09-02T13:34:13.875Z,25.45
2022-09-02T13:36:45.298Z,25.36
2022-09-02T13:39:19.034Z,25.32
2022-09-02T13:41:46.098Z,25.35
2022-09-02T13:44:29.494Z,25.47
2022-09-02T13:47:20.702Z,25.53
2022-09-02T13:49:51.163Z,25.65
2022-09-02T13:52:51.129Z,25.79
2022-09-02T13:55:13.946Z,25.72
2022-09-02T13:57:45.959Z,25.83
2022-09-02T14:00:17.011Z,25.95
2022-09-02T14:02:57.421Z,26.15
2022-09-02T14:05:25.527Z,26.36
2022-09-02T14:07:56.530Z,26.44
2022-09-02T14:10:27.144Z,26.50
2022-09-02T14:12:56.342Z,26.65
2022-09-02T14:15:29.622Z,26.85
2022-09-02T14:18:18.396Z,27.05
2022-09-02T14:21:10.763Z,27.07
2022-09-02T14:23:47.722Z,27.15
2022-09-02T14:26:23.862Z,27.21
2022-09-02T14:28:52.281Z,27.66
2022-09-02T14:31:30.634Z,27.94
2022-09-02T14:33:58.253Z,28.21
2022-09-02T14:36:29.755Z,28.23
2022-09-02T14:39:07.576Z,28.30
2022-09-02T14:41:38.371Z,28.56
2022-09-02T14:44:12.293Z,28.83
2022-09-02T14:46:55.754Z,28.95
2022-09-02T14:49:39.819Z,29.16
2022-09-02T14:52:18.037Z,29.48
2022-09-02T14:54:48.509Z,29.98
2022-09-02T14:57:24.312Z,30.22
2022-09-02T14:59:52.859Z,30.56
2022-09-02T15:02:28.580Z,30.56
2022-09-02T15:04:57.342Z,31.48
2022-09-02T15:07:25.242Z,31.80
2022-09-02T15:09:52.540Z,32.25
2022-09-02T15:12:32.977Z,32.51
2022-09-02T15:15:00.243Z,32.42
2022-09-02T15:17:29.427Z,32.05
2022-09-02T15:19:56.684Z,31.19
2022-09-02T15:22:24.051Z,30.10
2022-09-02T15:24:51.998Z,29.09
2022-09-02T15:27:20.220Z,28.63
2022-09-02T15:29:49.277Z,27.96
2022-09-02T15:32:16.325Z,27.52
2022-09-02T15:34:43.567Z,27.10
2022-09-02T15:37:13.037Z,26.86
2022-09-02T15:39:40.661Z,27.04
2022-09-02T15:42:07.522Z,26.77
2022-09-02T15:44:34.194Z,26.68
2022-09-02T15:47:00.852Z,26.40
2022-09-02T15:49:27.749Z,26.39
2022-09-02T15:51:55.122Z,26.23
2022-09-02T15:54:23.692Z,26.12
2022-09-02T15:56:55.472Z,26.01
2022-09-02T15:59:22.548Z,25.98
2022-09-02T16:01:55.444Z,26.11
2022-09-02T16:04:23.351Z,26.40
2022-09-02T16:06:54.751Z,26.43
2022-09-02T16:09:22.212Z,26.37
2022-09-02T16:11:52.273Z,26.04
2022-09-02T16:14:21.293Z,26.03
2022-09-02T16:16:49.946Z,25.99
2022-09-02T16:19:21.253Z,25.97
2022-09-02T16:21:49.366Z,25.95
2022-09-02T16:24:16.149Z,25.96
2022-09-02T16:26:42.920Z,25.80
2022-09-02T16:29:15.910Z,25.78
2022-09-02T16:31:45.880Z,25.89
2022-09-02T16:34:24.028Z,25.89
2022-09-02T16:36:51.203Z,25.83
2022-09-02T16:39:18.572Z,25.85
2022-09-02T16:41:51.529Z,25.63
2022-09-02T16:44:20.643Z,25.58
2022-09-02T16:46:49.387Z,25.53
2022-09-02T16:49:18.381Z,25.53
2022-09-02T16:51:52.509Z,25.58
2022-09-02T16:54:30.763Z,25.60
2022-09-02T16:57:00.122Z,25.47
2022-09-02T16:59:27.301Z,25.42
2022-09-02T17:01:54.100Z,25.42
2022-09-02T17:04:20.860Z,25.43
2022-09-02T17:06:47.667Z,25.39
2022-09-02T17:09:14.447Z,25.37
2022-09-02T17:11:42.495Z,25.48
2022-09-02T17:14:16.315Z,25.41
2022-09-02T17:16:48.883Z,25.45
2022-09-02T17:19:21.429Z,25.31
2022-09-02T17:21:53.811Z,25.14
2022-09-02T17:24:23.979Z,25.30
2022-09-02T17:26:55.483Z,25.20
2022-09-02T17:29:47.989Z,25.14
2022-09-02T17:32:10.650Z,25.14
2022-09-02T17:34:37.553Z,25.13
2022-09-02T17:37:05.189Z,25.14
2022-09-02T17:39:33.790Z,25.16
2022-09-02T17:42:01.771Z,25.14
2022-09-02T17:44:36.173Z,25.20
2022-09-02T17:47:20.727Z,25.09
2022-09-02T17:49:48.672Z,24.98
2022-09-02T17:52:18.572Z,24.88
2022-09-02T17:54:48.461Z,24.85
2022-09-02T17:57:23.577Z,24.82
2022-09-02T18:00:02.631Z,24.77
2022-09-02T18:02:35.608Z,24.73
2022-09-02T18:05:04.389Z,24.77
2022-09-02T18:08:18.076Z,24.67
2022-09-02T18:10:57.758Z,24.68
2022-09-02T18:13:54.421Z,24.79
2022-09-02T18:16:51.537Z,24.60
2022-09-02T18:19:36.705Z,24.65
2022-09-02T18:22:28.053Z,24.52
2022-09-02T18:25:33.481Z,24.48
2022-09-02T18:28:03.238Z,24.45
2022-09-02T18:30:45.673Z,24.34
2022-09-02T18:33:25.873Z,24.28
2022-09-02T18:36:29.378Z,24.33
2022-09-02T18:39:02.185Z,24.37
2022-09-02T18:41:56.741Z,24.26
2022-09-02T18:44:29.240Z,24.37
2022-09-02T18:47:05.137Z,24.44
2022-09-02T18:49:36.537Z,24.37
2022-09-02T18:52:06.603Z,24.25
2022-09-02T18:54:47.186Z,24.22
2022-09-02T18:57:14.767Z,24.26
2022-09-02T18:59:55.089Z,24.18
2022-09-02T19:02:32.745Z,24.15
2022-09-02T19:05:01.385Z,24.16
2022-09-02T19:07:50.101Z,24.21
2022-09-02T19:10:16.844Z,24.36
2022-09-02T19:12:44.276Z,24.22
2022-09-02T19:15:13.089Z,24.14
2022-09-02T19:17:40.504Z,24.16
2022-09-02T19:20:09.006Z,24.09
2022-09-02T19:22:43.121Z,24.13
2022-09-02T19:25:15.365Z,24.12
2022-09-02T19:27:44.335Z,24.14
2022-09-02T19:30:18.657Z,23.98
2022-09-02T19:32:47.742Z,23.84
2022-09-02T19:35:17.242Z,23.77
2022-09-02T19:37:46.896Z,23.66
2022-09-02T19:40:28.065Z,23.66
2022-09-02T19:42:55.113Z,23.67
2022-09-02T19:45:22.900Z,23.57
2022-09-02T19:48:06.471Z,23.61
2022-09-02T19:50:37.220Z,23.65
2022-09-02T19:53:04.092Z,23.79
2022-09-02T19:55:33.521Z,23.71
2022-09-02T19:58:00.298Z,23.66
2022-09-02T20:00:27.878Z,23.65
2022-09-02T20:02:55.270Z,23.71
2022-09-02T20:05:24.369Z,23.67
2022-09-02T20:07:51.780Z,23.67
2022-09-02T20:10:20.389Z,23.67
2022-09-02T20:12:51.843Z,23.68
2022-09-02T20:15:20.536Z,23.79
2022-09-02T20:17:47.344Z,23.71
2022-09-02T20:20:22.720Z,23.61
2022-09-02T20:22:57.415Z,23.68
2022-09-02T20:25:36.705Z,23.56
2022-09-02T20:28:23.022Z,23.52
2022-09-02T20:30:58.071Z,23.44
2022-09-02T20:33:34.900Z,23.52
2022-09-02T20:36:06.600Z,23.61
2022-09-02T20:39:19.720Z,23.60
2022-09-02T20:42:19.741Z,23.48
2022-09-02T20:45:02.324Z,23.48
2022-09-02T20:47:49.308Z,23.46
2022-09-02T20:50:36.268Z,23.38
2022-09-02T20:53:17.759Z,23.47
2022-09-02T20:56:01.784Z,23.20
2022-09-02T20:58:42.472Z,23.25
2022-09-02T21:01:21.744Z,23.29
2022-09-02T21:04:07.286Z,23.43
2022-09-02T21:06:40.169Z,23.37
2022-09-02T21:09:12.577Z,23.31
2022-09-02T21:11:53.260Z,23.05
2022-09-02T21:14:28.601Z,23.12
2022-09-02T21:17:03.825Z,23.14
2022-09-02T21:19:41.493Z,23.25
2022-09-02T21:22:19.687Z,23.00
2022-09-02T21:24:57.470Z,23.09
2022-09-02T21:27:35.386Z,23.14
2022-09-02T21:30:07.999Z,22.86
2022-09-02T21:32:38.807Z,22.96
2022-09-02T21:35:10.832Z,22.89
2022-09-02T21:37:39.873Z,23.05
2022-09-02T21:40:11.352Z,23.06
2022-09-02T21:43:05.593Z,23.12
2022-09-02T21:45:55.169Z,23.08
2022-09-02T21:48:32.145Z,23.16
2022-09-02T21:51:01.709Z,23.16
2022-09-02T21:54:04.145Z,23.14
2022-09-02T21:56:40.025Z,23.12
2022-09-02T21:59:12.436Z,23.20
2022-09-02T22:01:59.579Z,23.02
2022-09-02T22:04:44.721Z,22.92
2022-09-02T22:07:19.201Z,23.00
2022-09-02T22:09:52.780Z,22.97
2022-09-02T22:12:19.954Z,23.00
2022-09-02T22:14:56.101Z,23.19
2022-09-02T22:17:51.600Z,22.89
2022-09-02T22:20:22.203Z,23.00
2022-09-02T22:23:00.011Z,22.93
2022-09-02T22:25:29.621Z,22.81
2022-09-02T22:28:04.900Z,22.74
2022-09-02T22:30:35.917Z,22.70
2022-09-02T22:33:11.792Z,22.79
2022-09-02T22:35:58.530Z,22.71
2022-09-02T22:38:41.999Z,22.97
2022-09-02T22:41:41.532Z,22.82
2022-09-02T22:44:17.057Z,22.72
2022-09-02T22:47:14.124Z,22.61
2022-09-02T22:50:05.432Z,22.48
2022-09-02T22:52:46.376Z,22.42
2022-09-02T22:55:26.833Z,22.48
2022-09-02T22:58:30.826Z,22.51
2022-09-02T23:01:03.994Z,22.34
2022-09-02T23:04:05.720Z,22.20
2022-09-02T23:06:32.952Z,22.23
2022-09-02T23:09:09.239Z,22.22
2022-09-02T23:11:41.961Z,22.30
2022-09-02T23:14:27.636Z,22.29
2022-09-02T23:17:20.426Z,22.39
2022-09-02T23:20:02.795Z,22.51
2022-09-02T23:23:12.009Z,22.49
2022-09-02T23:25:55.023Z,22.50
2022-09-02T23:28:38.330Z,22.54
2022-09-02T23:31:26.954Z,22.64
2022-09-02T23:34:30.927Z,22.65
2022-09-02T23:37:10.227Z,22.77
2022-09-02T23:40:02.864Z,22.65
2022-09-02T23:42:30.720Z,22.52
2022-09-02T23:45:02.749Z,22.50
2022-09-02T23:47:42.998Z,22.43
2022-09-02T23:50:25.064Z,22.42
2022-09-02T23:52:58.750Z,22.60
2022-09-02T23:55:48.673Z,22.52
2022-09-02T23:58:18.547Z,22.50
